sensor_id;sensor_type;location;lat;lon;timestamp;P1;durP1;ratioP1;P2;durP2;ratioP2
16705;SDS011;8469;60.136;15.180;2022-09-09T00:03:51;2.50;;;1.20;;
16705;SDS011;8469;60.136;15.180;2022-09-09T00:06:28;3.02;;;1.10;;
16705;SDS011;8469;60.136;15.180;2022-09-09T00:09:04;2.50;;;1.25;;
16705;SDS011;8469;60.136;15.180;2022-09-09T00:11:36;2.75;;;1.12;;
16705;SDS011;8469;60.136;15.180;2022-09-09T00:14:03;1.92;;;1.40;;
16705;SDS011;8469;60.136;15.180;2022-09-09T00:16:32;3.00;;;1.20;;
16705;SDS011;8469;60.136;15.180;2022-09-09T00:21:49;1.30;;;1.20;;
16705;SDS011;8469;60.136;15.180;2022-09-09T00:24:24;2.50;;;1.20;;
16705;SDS011;8469;60.136;15.180;2022-09-09T00:26:48;1.22;;;1.12;;
16705;SDS011;8469;60.136;15.180;2022-09-09T00:29:33;1.42;;;1.20;;
16705;SDS011;8469;60.136;15.180;2022-09-09T00:32:04;2.13;;;1.40;;
16705;SDS011;8469;60.136;15.180;2022-09-09T00:34:29;1.70;;;1.30;;
16705;SDS011;8469;60.136;15.180;2022-09-09T00:36:57;1.72;;;1.20;;
16705;SDS011;8469;60.136;15.180;2022-09-09T00:39:37;1.87;;;1.10;;
16705;SDS011;8469;60.136;15.180;2022-09-09T00:42:12;3.40;;;1.10;;
16705;SDS011;8469;60.136;15.180;2022-09-09T00:44:41;1.72;;;1.15;;
16705;SDS011;8469;60.136;15.180;2022-09-09T00:47:21;1.37;;;1.10;;
16705;SDS011;8469;60.136;15.180;2022-09-09T00:55:25;3.40;;;1.10;;
16705;SDS011;8469;60.136;15.180;2022-09-09T00:57:48;1.92;;;1.10;;
16705;SDS011;8469;60.136;15.180;2022-09-09T01:00:17;3.47;;;1.37;;
16705;SDS011;8469;60.136;15.180;2022-09-09T01:05:55;4.33;;;1.17;;
16705;SDS011;8469;60.136;15.180;2022-09-09T01:08:00;1.10;;;1.10;;
16705;SDS011;8469;60.136;15.180;2022-09-09T01:13:04;1.22;;;1.15;;
16705;SDS011;8469;60.136;15.180;2022-09-09T01:15:32;1.50;;;1.10;;
16705;SDS011;8469;60.136;15.180;2022-09-09T01:18:07;1.62;;;1.20;;
16705;SDS011;8469;60.136;15.180;2022-09-09T01:20:35;1.55;;;1.10;;
16705;SDS011;8469;60.136;15.180;2022-09-09T01:26:04;1.12;;;1.00;;
16705;SDS011;8469;60.136;15.180;2022-09-09T01:28:32;1.77;;;1.37;;
16705;SDS011;8469;60.136;15.180;2022-09-09T01:31:01;3.17;;;1.12;;
16705;SDS011;8469;60.136;15.180;2022-09-09T01:33:29;2.20;;;1.10;;
16705;SDS011;8469;60.136;15.180;2022-09-09T01:36:07;1.40;;;1.10;;
16705;SDS011;8469;60.136;15.180;2022-09-09T01:38:34;1.35;;;0.90;;
16705;SDS011;8469;60.136;15.180;2022-09-09T01:41:03;1.13;;;1.10;;
16705;SDS011;8469;60.136;15.180;2022-09-09T01:43:30;1.20;;;1.10;;
16705;SDS011;8469;60.136;15.180;2022-09-09T01:45:59;1.10;;;1.10;;
16705;SDS011;8469;60.136;15.180;2022-09-09T01:48:27;1.87;;;1.00;;
16705;SDS011;8469;60.136;15.180;2022-09-09T01:50:54;1.80;;;1.00;;
16705;SDS011;8469;60.136;15.180;2022-09-09T01:53:22;1.17;;;1.00;;
16705;SDS011;8469;60.136;15.180;2022-09-09T01:56:07;1.10;;;1.00;;
16705;SDS011;8469;60.136;15.180;2022-09-09T01:58:45;1.15;;;1.05;;
16705;SDS011;8469;60.136;15.180;2022-09-09T02:03:52;2.55;;;1.17;;
16705;SDS011;8469;60.136;15.180;2022-09-09T02:08:55;1.20;;;1.10;;
16705;SDS011;8469;60.136;15.180;2022-09-09T02:11:23;4.30;;;1.30;;
16705;SDS011;8469;60.136;15.180;2022-09-09T02:13:57;2.00;;;1.10;;
16705;SDS011;8469;60.136;15.180;2022-09-09T02:16:24;1.30;;;1.07;;
16705;SDS011;8469;60.136;15.180;2022-09-09T02:19:09;1.10;;;1.00;;
16705;SDS011;8469;60.136;15.180;2022-09-09T02:21:38;1.40;;;1.17;;
16705;SDS011;8469;60.136;15.180;2022-09-09T02:24:07;1.10;;;1.10;;
16705;SDS011;8469;60.136;15.180;2022-09-09T02:26:39;1.45;;;1.17;;
16705;SDS011;8469;60.136;15.180;2022-09-09T02:29:41;1.17;;;1.10;;
16705;SDS011;8469;60.136;15.180;2022-09-09T02:31:42;1.20;;;1.10;;
16705;SDS011;8469;60.136;15.180;2022-09-09T02:34:10;1.98;;;1.20;;
16705;SDS011;8469;60.136;15.180;2022-09-09T02:36:38;1.50;;;1.10;;
16705;SDS011;8469;60.136;15.180;2022-09-09T02:39:07;1.37;;;1.00;;
16705;SDS011;8469;60.136;15.180;2022-09-09T02:41:37;4.90;;;1.60;;
16705;SDS011;8469;60.136;15.180;2022-09-09T02:44:15;1.20;;;1.10;;
16705;SDS011;8469;60.136;15.180;2022-09-09T02:46:46;1.45;;;1.10;;
16705;SDS011;8469;60.136;15.180;2022-09-09T02:49:16;1.30;;;1.17;;
16705;SDS011;8469;60.136;15.180;2022-09-09T02:51:50;1.20;;;1.20;;
16705;SDS011;8469;60.136;15.180;2022-09-09T02:54:32;1.42;;;1.27;;
16705;SDS011;8469;60.136;15.180;2022-09-09T02:59:46;1.40;;;1.30;;
16705;SDS011;8469;60.136;15.180;2022-09-09T03:02:13;1.32;;;1.17;;
16705;SDS011;8469;60.136;15.180;2022-09-09T03:04:40;2.10;;;1.30;;
16705;SDS011;8469;60.136;15.180;2022-09-09T03:07:10;1.80;;;1.20;;
16705;SDS011;8469;60.136;15.180;2022-09-09T03:09:38;1.80;;;1.30;;
16705;SDS011;8469;60.136;15.180;2022-09-09T03:12:05;2.40;;;1.20;;
16705;SDS011;8469;60.136;15.180;2022-09-09T03:14:33;1.52;;;1.17;;
16705;SDS011;8469;60.136;15.180;2022-09-09T03:17:01;1.60;;;1.20;;
16705;SDS011;8469;60.136;15.180;2022-09-09T03:19:28;1.30;;;1.20;;
16705;SDS011;8469;60.136;15.180;2022-09-09T03:21:56;1.77;;;1.32;;
16705;SDS011;8469;60.136;15.180;2022-09-09T03:24:23;2.92;;;1.50;;
16705;SDS011;8469;60.136;15.180;2022-09-09T03:26:50;3.90;;;1.35;;
16705;SDS011;8469;60.136;15.180;2022-09-09T03:29:18;2.12;;;1.45;;
16705;SDS011;8469;60.136;15.180;2022-09-09T03:31:46;1.47;;;1.25;;
16705;SDS011;8469;60.136;15.180;2022-09-09T03:34:13;1.40;;;1.30;;
16705;SDS011;8469;60.136;15.180;2022-09-09T03:36:40;2.00;;;1.30;;
16705;SDS011;8469;60.136;15.180;2022-09-09T03:39:08;1.57;;;1.35;;
16705;SDS011;8469;60.136;15.180;2022-09-09T03:41:35;2.27;;;1.40;;
16705;SDS011;8469;60.136;15.180;2022-09-09T03:44:03;2.83;;;1.27;;
16705;SDS011;8469;60.136;15.180;2022-09-09T03:46:30;1.87;;;1.40;;
16705;SDS011;8469;60.136;15.180;2022-09-09T03:48:58;1.55;;;1.45;;
16705;SDS011;8469;60.136;15.180;2022-09-09T03:51:25;1.40;;;1.30;;
16705;SDS011;8469;60.136;15.180;2022-09-09T03:53:52;1.50;;;1.40;;
16705;SDS011;8469;60.136;15.180;2022-09-09T03:56:21;1.62;;;1.20;;
16705;SDS011;8469;60.136;15.180;2022-09-09T03:58:49;1.47;;;1.37;;
16705;SDS011;8469;60.136;15.180;2022-09-09T04:01:16;3.85;;;1.35;;
16705;SDS011;8469;60.136;15.180;2022-09-09T04:03:44;1.20;;;1.10;;
16705;SDS011;8469;60.136;15.180;2022-09-09T04:06:14;1.52;;;1.10;;
16705;SDS011;8469;60.136;15.180;2022-09-09T04:08:41;1.12;;;1.10;;
16705;SDS011;8469;60.136;15.180;2022-09-09T04:11:09;2.92;;;1.20;;
16705;SDS011;8469;60.136;15.180;2022-09-09T04:13:37;3.10;;;1.40;;
16705;SDS011;8469;60.136;15.180;2022-09-09T04:16:05;1.12;;;1.10;;
16705;SDS011;8469;60.136;15.180;2022-09-09T04:18:32;1.67;;;1.20;;
16705;SDS011;8469;60.136;15.180;2022-09-09T04:21:00;1.30;;;1.20;;
16705;SDS011;8469;60.136;15.180;2022-09-09T04:23:28;4.37;;;1.40;;
16705;SDS011;8469;60.136;15.180;2022-09-09T04:25:56;1.10;;;1.10;;
16705;SDS011;8469;60.136;15.180;2022-09-09T04:28:25;3.40;;;1.10;;
16705;SDS011;8469;60.136;15.180;2022-09-09T04:30:52;3.73;;;1.20;;
16705;SDS011;8469;60.136;15.180;2022-09-09T04:33:20;2.65;;;1.10;;
16705;SDS011;8469;60.136;15.180;2022-09-09T04:35:48;1.40;;;1.30;;
16705;SDS011;8469;60.136;15.180;2022-09-09T04:38:16;2.27;;;1.35;;
16705;SDS011;8469;60.136;15.180;2022-09-09T04:40:47;2.00;;;1.30;;
16705;SDS011;8469;60.136;15.180;2022-09-09T04:43:14;1.80;;;1.27;;
16705;SDS011;8469;60.136;15.180;2022-09-09T04:45:42;2.50;;;1.20;;
16705;SDS011;8469;60.136;15.180;2022-09-09T04:48:10;1.37;;;1.27;;
16705;SDS011;8469;60.136;15.180;2022-09-09T04:50:37;1.30;;;1.20;;
16705;SDS011;8469;60.136;15.180;2022-09-09T04:53:05;1.30;;;1.20;;
16705;SDS011;8469;60.136;15.180;2022-09-09T04:55:32;4.35;;;1.90;;
16705;SDS011;8469;60.136;15.180;2022-09-09T04:58:04;1.98;;;1.65;;
16705;SDS011;8469;60.136;15.180;2022-09-09T05:00:32;1.62;;;1.50;;
16705;SDS011;8469;60.136;15.180;2022-09-09T05:03:05;2.10;;;1.50;;
16705;SDS011;8469;60.136;15.180;2022-09-09T05:05:34;1.67;;;1.30;;
16705;SDS011;8469;60.136;15.180;2022-09-09T05:08:03;1.50;;;1.40;;
16705;SDS011;8469;60.136;15.180;2022-09-09T05:10:31;1.20;;;1.20;;
16705;SDS011;8469;60.136;15.180;2022-09-09T05:12:58;1.10;;;1.10;;
16705;SDS011;8469;60.136;15.180;2022-09-09T05:15:25;1.00;;;1.00;;
16705;SDS011;8469;60.136;15.180;2022-09-09T05:17:56;1.62;;;1.30;;
16705;SDS011;8469;60.136;15.180;2022-09-09T05:20:21;1.20;;;1.15;;
16705;SDS011;8469;60.136;15.180;2022-09-09T05:22:52;2.50;;;1.25;;
16705;SDS011;8469;60.136;15.180;2022-09-09T05:25:17;3.20;;;1.20;;
16705;SDS011;8469;60.136;15.180;2022-09-09T05:27:46;1.87;;;1.30;;
16705;SDS011;8469;60.136;15.180;2022-09-09T05:30:13;1.35;;;1.22;;
16705;SDS011;8469;60.136;15.180;2022-09-09T05:32:40;1.90;;;1.60;;
16705;SDS011;8469;60.136;15.180;2022-09-09T05:35:08;2.12;;;1.50;;
16705;SDS011;8469;60.136;15.180;2022-09-09T05:37:35;1.50;;;1.20;;
16705;SDS011;8469;60.136;15.180;2022-09-09T05:40:02;1.20;;;1.00;;
16705;SDS011;8469;60.136;15.180;2022-09-09T05:42:29;2.50;;;1.12;;
16705;SDS011;8469;60.136;15.180;2022-09-09T05:44:58;2.40;;;1.20;;
16705;SDS011;8469;60.136;15.180;2022-09-09T05:47:26;3.50;;;1.20;;
16705;SDS011;8469;60.136;15.180;2022-09-09T05:49:54;1.40;;;1.27;;
16705;SDS011;8469;60.136;15.180;2022-09-09T05:52:22;1.30;;;1.20;;
16705;SDS011;8469;60.136;15.180;2022-09-09T05:54:49;1.70;;;1.10;;
16705;SDS011;8469;60.136;15.180;2022-09-09T05:57:17;2.80;;;1.15;;
16705;SDS011;8469;60.136;15.180;2022-09-09T05:59:45;2.70;;;1.10;;
16705;SDS011;8469;60.136;15.180;2022-09-09T06:02:13;3.30;;;1.20;;
16705;SDS011;8469;60.136;15.180;2022-09-09T06:04:40;1.30;;;1.10;;
16705;SDS011;8469;60.136;15.180;2022-09-09T06:07:07;2.80;;;1.10;;
16705;SDS011;8469;60.136;15.180;2022-09-09T06:09:35;1.90;;;1.10;;
16705;SDS011;8469;60.136;15.180;2022-09-09T06:12:02;1.12;;;1.02;;
16705;SDS011;8469;60.136;15.180;2022-09-09T06:14:30;1.22;;;0.98;;
16705;SDS011;8469;60.136;15.180;2022-09-09T06:16:58;1.25;;;1.15;;
16705;SDS011;8469;60.136;15.180;2022-09-09T06:19:25;0.93;;;0.93;;
16705;SDS011;8469;60.136;15.180;2022-09-09T06:21:53;0.90;;;0.90;;
16705;SDS011;8469;60.136;15.180;2022-09-09T06:24:21;2.80;;;0.90;;
16705;SDS011;8469;60.136;15.180;2022-09-09T06:26:48;1.00;;;1.00;;
16705;SDS011;8469;60.136;15.180;2022-09-09T06:29:15;1.00;;;0.90;;
16705;SDS011;8469;60.136;15.180;2022-09-09T06:31:42;1.10;;;1.00;;
16705;SDS011;8469;60.136;15.180;2022-09-09T06:34:10;0.88;;;0.75;;
16705;SDS011;8469;60.136;15.180;2022-09-09T06:36:37;0.98;;;0.98;;
16705;SDS011;8469;60.136;15.180;2022-09-09T06:39:06;0.80;;;0.80;;
16705;SDS011;8469;60.136;15.180;2022-09-09T06:41:36;1.10;;;1.10;;
16705;SDS011;8469;60.136;15.180;2022-09-09T06:44:04;0.82;;;0.82;;
16705;SDS011;8469;60.136;15.180;2022-09-09T06:46:32;2.30;;;1.10;;
16705;SDS011;8469;60.136;15.180;2022-09-09T06:48:59;0.82;;;0.82;;
16705;SDS011;8469;60.136;15.180;2022-09-09T06:51:28;0.93;;;0.93;;
16705;SDS011;8469;60.136;15.180;2022-09-09T06:53:56;0.75;;;0.75;;
16705;SDS011;8469;60.136;15.180;2022-09-09T06:58:56;1.20;;;0.90;;
16705;SDS011;8469;60.136;15.180;2022-09-09T07:01:26;0.90;;;0.90;;
16705;SDS011;8469;60.136;15.180;2022-09-09T07:03:54;0.80;;;0.80;;
16705;SDS011;8469;60.136;15.180;2022-09-09T07:06:25;1.05;;;1.00;;
16705;SDS011;8469;60.136;15.180;2022-09-09T07:08:58;0.95;;;0.95;;
16705;SDS011;8469;60.136;15.180;2022-09-09T07:11:22;0.80;;;0.80;;
16705;SDS011;8469;60.136;15.180;2022-09-09T07:13:50;4.42;;;1.10;;
16705;SDS011;8469;60.136;15.180;2022-09-09T07:16:17;2.90;;;0.90;;
16705;SDS011;8469;60.136;15.180;2022-09-09T07:18:47;1.52;;;0.98;;
16705;SDS011;8469;60.136;15.180;2022-09-09T07:21:14;1.27;;;1.10;;
16705;SDS011;8469;60.136;15.180;2022-09-09T07:23:42;1.35;;;0.98;;
16705;SDS011;8469;60.136;15.180;2022-09-09T07:26:14;1.10;;;0.80;;
16705;SDS011;8469;60.136;15.180;2022-09-09T07:28:41;0.90;;;0.90;;
16705;SDS011;8469;60.136;15.180;2022-09-09T07:31:20;1.30;;;0.90;;
16705;SDS011;8469;60.136;15.180;2022-09-09T07:33:44;1.22;;;1.00;;
16705;SDS011;8469;60.136;15.180;2022-09-09T07:36:15;1.40;;;1.35;;
16705;SDS011;8469;60.136;15.180;2022-09-09T07:38:48;1.10;;;1.00;;
16705;SDS011;8469;60.136;15.180;2022-09-09T07:41:18;2.37;;;1.25;;
16705;SDS011;8469;60.136;15.180;2022-09-09T07:43:45;0.80;;;0.80;;
16705;SDS011;8469;60.136;15.180;2022-09-09T07:46:14;3.17;;;0.95;;
16705;SDS011;8469;60.136;15.180;2022-09-09T07:48:45;0.82;;;0.82;;
16705;SDS011;8469;60.136;15.180;2022-09-09T07:51:14;1.80;;;1.10;;
16705;SDS011;8469;60.136;15.180;2022-09-09T07:53:43;2.30;;;0.90;;
16705;SDS011;8469;60.136;15.180;2022-09-09T07:56:12;2.70;;;0.80;;
16705;SDS011;8469;60.136;15.180;2022-09-09T07:58:40;1.10;;;0.82;;
16705;SDS011;8469;60.136;15.180;2022-09-09T08:01:13;1.35;;;0.90;;
16705;SDS011;8469;60.136;15.180;2022-09-09T08:03:36;0.90;;;0.90;;
16705;SDS011;8469;60.136;15.180;2022-09-09T08:06:04;0.90;;;0.90;;
16705;SDS011;8469;60.136;15.180;2022-09-09T08:08:33;1.02;;;0.80;;
16705;SDS011;8469;60.136;15.180;2022-09-09T08:11:05;2.08;;;0.90;;
16705;SDS011;8469;60.136;15.180;2022-09-09T08:13:30;1.00;;;0.75;;
16705;SDS011;8469;60.136;15.180;2022-09-09T08:16:04;0.70;;;0.70;;
16705;SDS011;8469;60.136;15.180;2022-09-09T08:18:32;0.90;;;0.90;;
16705;SDS011;8469;60.136;15.180;2022-09-09T08:21:21;0.80;;;0.80;;
16705;SDS011;8469;60.136;15.180;2022-09-09T08:23:28;0.70;;;0.70;;
16705;SDS011;8469;60.136;15.180;2022-09-09T08:26:02;0.60;;;0.60;;
16705;SDS011;8469;60.136;15.180;2022-09-09T08:28:24;0.70;;;0.70;;
16705;SDS011;8469;60.136;15.180;2022-09-09T08:30:52;1.33;;;0.63;;
16705;SDS011;8469;60.136;15.180;2022-09-09T08:33:20;1.47;;;0.80;;
16705;SDS011;8469;60.136;15.180;2022-09-09T08:35:50;1.90;;;0.80;;
16705;SDS011;8469;60.136;15.180;2022-09-09T08:38:19;1.47;;;0.80;;
16705;SDS011;8469;60.136;15.180;2022-09-09T08:40:47;0.95;;;0.80;;
16705;SDS011;8469;60.136;15.180;2022-09-09T08:43:16;3.70;;;1.37;;
16705;SDS011;8469;60.136;15.180;2022-09-09T08:45:50;2.08;;;1.07;;
16705;SDS011;8469;60.136;15.180;2022-09-09T08:51:02;1.87;;;1.50;;
16705;SDS011;8469;60.136;15.180;2022-09-09T08:53:38;1.42;;;1.17;;
16705;SDS011;8469;60.136;15.180;2022-09-09T08:56:01;3.57;;;2.60;;
16705;SDS011;8469;60.136;15.180;2022-09-09T08:58:31;1.37;;;0.70;;
16705;SDS011;8469;60.136;15.180;2022-09-09T09:06:15;1.90;;;1.00;;
16705;SDS011;8469;60.136;15.180;2022-09-09T09:08:53;2.30;;;0.98;;
16705;SDS011;8469;60.136;15.180;2022-09-09T09:11:20;1.10;;;0.70;;
16705;SDS011;8469;60.136;15.180;2022-09-09T09:13:55;1.00;;;0.80;;
16705;SDS011;8469;60.136;15.180;2022-09-09T09:18:52;1.50;;;0.80;;
16705;SDS011;8469;60.136;15.180;2022-09-09T09:21:39;1.70;;;1.00;;
16705;SDS011;8469;60.136;15.180;2022-09-09T09:24:09;1.65;;;0.88;;
16705;SDS011;8469;60.136;15.180;2022-09-09T09:26:34;0.90;;;0.82;;
16705;SDS011;8469;60.136;15.180;2022-09-09T09:29:12;1.15;;;0.80;;
16705;SDS011;8469;60.136;15.180;2022-09-09T09:31:50;1.98;;;0.82;;
16705;SDS011;8469;60.136;15.180;2022-09-09T09:34:14;1.60;;;0.80;;
16705;SDS011;8469;60.136;15.180;2022-09-09T09:36:42;0.70;;;0.70;;
16705;SDS011;8469;60.136;15.180;2022-09-09T09:39:23;2.67;;;0.95;;
16705;SDS011;8469;60.136;15.180;2022-09-09T09:41:41;0.80;;;0.70;;
16705;SDS011;8469;60.136;15.180;2022-09-09T09:46:47;2.57;;;0.80;;
16705;SDS011;8469;60.136;15.180;2022-09-09T09:49:14;2.50;;;0.80;;
16705;SDS011;8469;60.136;15.180;2022-09-09T09:51:42;1.05;;;0.70;;
16705;SDS011;8469;60.136;15.180;2022-09-09T09:54:14;1.57;;;0.80;;
16705;SDS011;8469;60.136;15.180;2022-09-09T09:56:39;0.90;;;0.70;;
16705;SDS011;8469;60.136;15.180;2022-09-09T09:59:19;0.70;;;0.70;;
16705;SDS011;8469;60.136;15.180;2022-09-09T10:01:36;0.80;;;0.80;;
16705;SDS011;8469;60.136;15.180;2022-09-09T10:04:14;2.40;;;0.80;;
16705;SDS011;8469;60.136;15.180;2022-09-09T10:06:33;1.80;;;0.75;;
16705;SDS011;8469;60.136;15.180;2022-09-09T10:09:01;1.20;;;0.60;;
16705;SDS011;8469;60.136;15.180;2022-09-09T10:11:35;1.67;;;0.70;;
16705;SDS011;8469;60.136;15.180;2022-09-09T10:19:26;2.67;;;1.00;;
16705;SDS011;8469;60.136;15.180;2022-09-09T10:24:28;0.80;;;0.70;;
16705;SDS011;8469;60.136;15.180;2022-09-09T10:26:53;2.17;;;0.70;;
16705;SDS011;8469;60.136;15.180;2022-09-09T10:31:55;2.08;;;0.70;;
16705;SDS011;8469;60.136;15.180;2022-09-09T10:37:11;1.92;;;0.60;;
16705;SDS011;8469;60.136;15.180;2022-09-09T10:39:36;1.77;;;0.75;;
16705;SDS011;8469;60.136;15.180;2022-09-09T10:42:07;0.68;;;0.68;;
16705;SDS011;8469;60.136;15.180;2022-09-09T10:44:50;2.45;;;0.78;;
16705;SDS011;8469;60.136;15.180;2022-09-09T10:55:09;1.52;;;1.10;;
16705;SDS011;8469;60.136;15.180;2022-09-09T10:57:46;2.05;;;0.60;;
16705;SDS011;8469;60.136;15.180;2022-09-09T11:00:24;1.10;;;0.70;;
16705;SDS011;8469;60.136;15.180;2022-09-09T11:02:57;0.60;;;0.60;;
16705;SDS011;8469;60.136;15.180;2022-09-09T11:05:24;1.47;;;0.60;;
16705;SDS011;8469;60.136;15.180;2022-09-09T11:07:54;1.45;;;0.60;;
16705;SDS011;8469;60.136;15.180;2022-09-09T11:10:24;1.60;;;0.80;;
16705;SDS011;8469;60.136;15.180;2022-09-09T11:12:53;1.70;;;0.80;;
16705;SDS011;8469;60.136;15.180;2022-09-09T11:15:22;0.62;;;0.62;;
16705;SDS011;8469;60.136;15.180;2022-09-09T11:17:50;0.90;;;0.60;;
16705;SDS011;8469;60.136;15.180;2022-09-09T11:20:18;2.27;;;0.70;;
16705;SDS011;8469;60.136;15.180;2022-09-09T11:22:48;2.80;;;0.70;;
16705;SDS011;8469;60.136;15.180;2022-09-09T11:25:17;0.90;;;0.60;;
16705;SDS011;8469;60.136;15.180;2022-09-09T11:34:03;0.90;;;0.70;;
16705;SDS011;8469;60.136;15.180;2022-09-09T11:38:46;0.78;;;0.50;;
16705;SDS011;8469;60.136;15.180;2022-09-09T11:41:14;2.12;;;0.70;;
16705;SDS011;8469;60.136;15.180;2022-09-09T11:43:43;2.02;;;0.55;;
16705;SDS011;8469;60.136;15.180;2022-09-09T11:46:11;1.37;;;0.60;;
16705;SDS011;8469;60.136;15.180;2022-09-09T11:48:40;0.60;;;0.60;;
16705;SDS011;8469;60.136;15.180;2022-09-09T11:53:55;1.30;;;0.70;;
16705;SDS011;8469;60.136;15.180;2022-09-09T11:56:29;2.75;;;0.70;;
16705;SDS011;8469;60.136;15.180;2022-09-09T11:59:19;2.50;;;0.60;;
16705;SDS011;8469;60.136;15.180;2022-09-09T12:09:33;1.35;;;0.60;;
16705;SDS011;8469;60.136;15.180;2022-09-09T12:17:20;2.87;;;0.80;;
16705;SDS011;8469;60.136;15.180;2022-09-09T12:19:39;0.68;;;0.68;;
16705;SDS011;8469;60.136;15.180;2022-09-09T12:22:19;1.47;;;0.78;;
16705;SDS011;8469;60.136;15.180;2022-09-09T12:24:49;3.85;;;0.80;;
16705;SDS011;8469;60.136;15.180;2022-09-09T12:30:03;0.60;;;0.60;;
16705;SDS011;8469;60.136;15.180;2022-09-09T12:32:30;2.40;;;0.78;;
16705;SDS011;8469;60.136;15.180;2022-09-09T12:34:59;3.17;;;0.70;;
16705;SDS011;8469;60.136;15.180;2022-09-09T12:40:03;1.53;;;0.60;;
16705;SDS011;8469;60.136;15.180;2022-09-09T12:42:31;2.15;;;0.60;;
16705;SDS011;8469;60.136;15.180;2022-09-09T12:45:03;1.45;;;0.62;;
16705;SDS011;8469;60.136;15.180;2022-09-09T12:47:40;2.22;;;0.70;;
16705;SDS011;8469;60.136;15.180;2022-09-09T12:50:22;0.70;;;0.68;;
16705;SDS011;8469;60.136;15.180;2022-09-09T12:52:45;4.65;;;0.98;;
16705;SDS011;8469;60.136;15.180;2022-09-09T12:55:17;0.83;;;0.60;;
16705;SDS011;8469;60.136;15.180;2022-09-09T12:57:45;0.70;;;0.60;;
16705;SDS011;8469;60.136;15.180;2022-09-09T13:00:20;1.70;;;0.50;;
16705;SDS011;8469;60.136;15.180;2022-09-09T13:02:49;2.40;;;0.67;;
16705;SDS011;8469;60.136;15.180;2022-09-09T13:05:21;0.60;;;0.60;;
16705;SDS011;8469;60.136;15.180;2022-09-09T13:07:48;1.60;;;0.60;;
16705;SDS011;8469;60.136;15.180;2022-09-09T13:10:24;0.70;;;0.60;;
16705;SDS011;8469;60.136;15.180;2022-09-09T13:12:47;0.93;;;0.50;;
16705;SDS011;8469;60.136;15.180;2022-09-09T13:15:22;1.42;;;0.60;;
16705;SDS011;8469;60.136;15.180;2022-09-09T13:17:59;2.25;;;0.60;;
16705;SDS011;8469;60.136;15.180;2022-09-09T13:20:22;1.47;;;0.70;;
16705;SDS011;8469;60.136;15.180;2022-09-09T13:22:51;3.45;;;0.80;;
16705;SDS011;8469;60.136;15.180;2022-09-09T13:25:23;0.93;;;0.70;;
16705;SDS011;8469;60.136;15.180;2022-09-09T13:27:54;1.12;;;0.68;;
16705;SDS011;8469;60.136;15.180;2022-09-09T13:33:00;3.58;;;1.50;;
16705;SDS011;8469;60.136;15.180;2022-09-09T13:35:28;3.05;;;0.53;;
16705;SDS011;8469;60.136;15.180;2022-09-09T13:37:55;1.00;;;0.80;;
16705;SDS011;8469;60.136;15.180;2022-09-09T13:40:23;0.90;;;0.70;;
16705;SDS011;8469;60.136;15.180;2022-09-09T13:42:56;3.50;;;0.82;;
16705;SDS011;8469;60.136;15.180;2022-09-09T13:45:25;0.65;;;0.65;;
16705;SDS011;8469;60.136;15.180;2022-09-09T13:47:57;2.10;;;0.60;;
16705;SDS011;8469;60.136;15.180;2022-09-09T13:50:25;4.72;;;0.72;;
16705;SDS011;8469;60.136;15.180;2022-09-09T13:52:53;3.02;;;0.90;;
16705;SDS011;8469;60.136;15.180;2022-09-09T13:55:22;3.57;;;0.80;;
16705;SDS011;8469;60.136;15.180;2022-09-09T13:57:56;1.30;;;0.70;;
16705;SDS011;8469;60.136;15.180;2022-09-09T14:00:19;2.65;;;0.80;;
16705;SDS011;8469;60.136;15.180;2022-09-09T14:02:47;1.10;;;0.60;;
16705;SDS011;8469;60.136;15.180;2022-09-09T14:05:15;1.65;;;0.53;;
16705;SDS011;8469;60.136;15.180;2022-09-09T14:07:42;4.80;;;0.80;;
16705;SDS011;8469;60.136;15.180;2022-09-09T14:10:10;2.95;;;0.70;;
16705;SDS011;8469;60.136;15.180;2022-09-09T14:12:38;2.45;;;0.88;;
16705;SDS011;8469;60.136;15.180;2022-09-09T14:15:05;3.13;;;0.60;;
16705;SDS011;8469;60.136;15.180;2022-09-09T14:17:33;2.80;;;0.67;;
16705;SDS011;8469;60.136;15.180;2022-09-09T14:20:06;0.80;;;0.70;;
16705;SDS011;8469;60.136;15.180;2022-09-09T14:22:35;3.47;;;0.60;;
16705;SDS011;8469;60.136;15.180;2022-09-09T14:25:03;0.47;;;0.40;;
16705;SDS011;8469;60.136;15.180;2022-09-09T14:27:32;0.50;;;0.50;;
16705;SDS011;8469;60.136;15.180;2022-09-09T14:29:59;4.00;;;1.15;;
16705;SDS011;8469;60.136;15.180;2022-09-09T14:32:27;1.05;;;0.70;;
16705;SDS011;8469;60.136;15.180;2022-09-09T14:34:55;2.62;;;0.68;;
16705;SDS011;8469;60.136;15.180;2022-09-09T14:37:22;0.60;;;0.60;;
16705;SDS011;8469;60.136;15.180;2022-09-09T14:39:50;2.33;;;0.70;;
16705;SDS011;8469;60.136;15.180;2022-09-09T14:42:17;1.00;;;0.60;;
16705;SDS011;8469;60.136;15.180;2022-09-09T14:44:45;2.65;;;0.78;;
16705;SDS011;8469;60.136;15.180;2022-09-09T14:47:12;1.10;;;0.70;;
16705;SDS011;8469;60.136;15.180;2022-09-09T14:49:39;2.40;;;0.70;;
16705;SDS011;8469;60.136;15.180;2022-09-09T14:52:07;1.70;;;0.88;;
16705;SDS011;8469;60.136;15.180;2022-09-09T14:54:35;2.02;;;0.60;;
16705;SDS011;8469;60.136;15.180;2022-09-09T14:57:02;3.40;;;0.80;;
16705;SDS011;8469;60.136;15.180;2022-09-09T14:59:30;1.67;;;0.50;;
16705;SDS011;8469;60.136;15.180;2022-09-09T15:01:57;2.15;;;0.60;;
16705;SDS011;8469;60.136;15.180;2022-09-09T15:04:26;0.68;;;0.60;;
16705;SDS011;8469;60.136;15.180;2022-09-09T15:06:53;8.10;;;1.40;;
16705;SDS011;8469;60.136;15.180;2022-09-09T15:09:21;2.22;;;0.80;;
16705;SDS011;8469;60.136;15.180;2022-09-09T15:11:49;1.93;;;0.60;;
16705;SDS011;8469;60.136;15.180;2022-09-09T15:14:16;0.98;;;0.70;;
16705;SDS011;8469;60.136;15.180;2022-09-09T15:16:43;3.40;;;0.80;;
16705;SDS011;8469;60.136;15.180;2022-09-09T15:19:10;0.90;;;0.60;;
16705;SDS011;8469;60.136;15.180;2022-09-09T15:21:38;2.10;;;0.80;;
16705;SDS011;8469;60.136;15.180;2022-09-09T15:24:05;2.60;;;0.70;;
16705;SDS011;8469;60.136;15.180;2022-09-09T15:26:34;1.27;;;0.50;;
16705;SDS011;8469;60.136;15.180;2022-09-09T15:29:03;1.60;;;0.57;;
16705;SDS011;8469;60.136;15.180;2022-09-09T15:31:31;2.37;;;0.80;;
16705;SDS011;8469;60.136;15.180;2022-09-09T15:34:00;4.10;;;0.75;;
16705;SDS011;8469;60.136;15.180;2022-09-09T15:36:44;0.57;;;0.57;;
16705;SDS011;8469;60.136;15.180;2022-09-09T15:39:13;0.67;;;0.67;;
16705;SDS011;8469;60.136;15.180;2022-09-09T15:41:43;1.40;;;0.70;;
16705;SDS011;8469;60.136;15.180;2022-09-09T15:44:11;1.80;;;0.60;;
16705;SDS011;8469;60.136;15.180;2022-09-09T15:46:43;3.25;;;1.20;;
16705;SDS011;8469;60.136;15.180;2022-09-09T15:49:09;3.20;;;0.75;;
16705;SDS011;8469;60.136;15.180;2022-09-09T15:51:37;4.65;;;0.93;;
16705;SDS011;8469;60.136;15.180;2022-09-09T15:54:06;1.20;;;0.70;;
16705;SDS011;8469;60.136;15.180;2022-09-09T15:56:33;0.98;;;0.80;;
16705;SDS011;8469;60.136;15.180;2022-09-09T15:59:01;0.78;;;0.70;;
16705;SDS011;8469;60.136;15.180;2022-09-09T16:01:32;2.12;;;0.70;;
16705;SDS011;8469;60.136;15.180;2022-09-09T16:03:59;3.90;;;0.85;;
16705;SDS011;8469;60.136;15.180;2022-09-09T16:06:27;2.00;;;0.73;;
16705;SDS011;8469;60.136;15.180;2022-09-09T16:08:56;2.50;;;0.80;;
16705;SDS011;8469;60.136;15.180;2022-09-09T16:11:24;2.30;;;0.60;;
16705;SDS011;8469;60.136;15.180;2022-09-09T16:13:52;3.10;;;0.70;;
16705;SDS011;8469;60.136;15.180;2022-09-09T16:16:21;1.32;;;0.72;;
16705;SDS011;8469;60.136;15.180;2022-09-09T16:18:50;2.00;;;0.78;;
16705;SDS011;8469;60.136;15.180;2022-09-09T16:21:23;3.90;;;0.73;;
16705;SDS011;8469;60.136;15.180;2022-09-09T16:23:55;1.83;;;1.40;;
16705;SDS011;8469;60.136;15.180;2022-09-09T16:26:23;2.90;;;0.80;;
16705;SDS011;8469;60.136;15.180;2022-09-09T16:28:50;1.80;;;0.72;;
16705;SDS011;8469;60.136;15.180;2022-09-09T16:31:20;2.50;;;0.68;;
16705;SDS011;8469;60.136;15.180;2022-09-09T16:33:48;1.10;;;0.80;;
16705;SDS011;8469;60.136;15.180;2022-09-09T16:36:17;1.40;;;0.70;;